Time;durP1;ratioP1;P1;durP2;ratioP2;P2;SDS_P1;SDS_P2;PMS_P1;PMS_P2;Temp;Humidity;BMP_temperature;BMP_pressure;BME280_temperature;BME280_humidity;BME280_pressure;Samples;Min_cycle;Max_cycle;Signal;HPM_P1;HPM_P2
2022/01/15 00:01:37;;;;;;;44.17;17.53;;;;;;;;;;4732855;30;20056;-75
2022/01/15 00:04:03;;;;;;;38.77;16.63;;;;;;;;;;4726100;30;20317;-77
2022/01/15 00:06:28;;;;;;;35.53;16.43;;;;;;;;;;4741884;30;20047;-77
2022/01/15 00:08:53;;;;;;;37.27;17.37;;;;;;;;;;4735348;30;20045;-77
2022/01/15 00:11:19;;;;;;;34.23;15.57;;;;;;;;;;4734939;30;20052;-76
2022/01/15 00:13:52;;;;;;;31.17;15.07;;;;;;;;;;4738496;30;20470;-77
2022/01/15 00:16:30;;;;;;;31.05;14.73;;;;;;;;;;4736651;30;20043;-75
2022/01/15 00:21:47;;;;;;;43.38;17.20;;;;;;;;;;4748201;30;20062;-75
2022/01/15 00:24:15;;;;;;;38.43;16.90;;;;;;;;;;4747653;30;20048;-75
2022/01/15 00:26:40;;;;;;;38.28;16.75;;;;;;;;;;4754076;30;20040;-75
2022/01/15 00:29:06;;;;;;;35.67;16.07;;;;;;;;;;4745003;30;20044;-75
2022/01/15 00:31:32;;;;;;;37.13;16.97;;;;;;;;;;4752625;30;20402;-77
2022/01/15 00:33:57;;;;;;;31.95;15.95;;;;;;;;;;4746080;30;20036;-76
2022/01/15 00:36:22;;;;;;;39.10;14.83;;;;;;;;;;4740451;30;20036;-77
2022/01/15 00:38:49;;;;;;;32.80;15.07;;;;;;;;;;4740563;30;20040;-77
2022/01/15 00:41:16;;;;;;;34.78;16.02;;;;;;;;;;4741398;30;20069;-77
2022/01/15 00:43:42;;;;;;;32.95;14.40;;;;;;;;;;4740554;30;20040;-77
2022/01/15 00:46:07;;;;;;;40.47;15.57;;;;;;;;;;4742032;30;20095;-76
2022/01/15 00:48:32;;;;;;;32.57;15.33;;;;;;;;;;4745876;30;20094;-74
2022/01/15 00:50:58;;;;;;;28.83;14.73;;;;;;;;;;4737797;30;20036;-73
2022/01/15 00:53:23;;;;;;;39.60;15.90;;;;;;;;;;4743202;30;20058;-73
2022/01/15 00:55:49;;;;;;;34.53;16.33;;;;;;;;;;4737379;30;20047;-73
2022/01/15 00:58:14;;;;;;;30.73;15.07;;;;;;;;;;4742842;30;20041;-73
2022/01/15 01:00:40;;;;;;;34.90;15.07;;;;;;;;;;4740699;30;20044;-77
2022/01/15 01:03:05;;;;;;;32.27;14.17;;;;;;;;;;4742633;30;20044;-76
2022/01/15 01:05:31;;;;;;;33.67;16.43;;;;;;;;;;4742252;30;20043;-76
2022/01/15 01:07:57;;;;;;;27.33;13.30;;;;;;;;;;4748090;30;20048;-76
2022/01/15 01:23:53;;;;;;;63.50;26.08;;;;;;;;;;4729171;30;20064;-74
2022/01/15 01:26:27;;;;;;;62.53;24.90;;;;;;;;;;4745753;30;20037;-74
2022/01/15 01:29:46;;;;;;;56.17;24.10;;;;;;;;;;4734776;30;20494;-74
2022/01/15 01:31:56;;;;;;;50.75;22.33;;;;;;;;;;4735224;30;20140;-76
2022/01/15 01:34:23;;;;;;;62.40;24.25;;;;;;;;;;4740510;30;20585;-76
2022/01/15 01:37:00;;;;;;;48.65;20.77;;;;;;;;;;4743900;30;20383;-76
2022/01/15 01:39:35;;;;;;;48.40;20.43;;;;;;;;;;4744860;30;20044;-76
2022/01/15 01:42:14;;;;;;;55.65;21.77;;;;;;;;;;4742528;30;20317;-74
2022/01/15 01:44:42;;;;;;;45.80;20.73;;;;;;;;;;4743879;30;20465;-74
2022/01/15 01:47:22;;;;;;;48.20;20.42;;;;;;;;;;4748394;30;20048;-74
2022/01/15 01:49:47;;;;;;;45.08;21.13;;;;;;;;;;4734984;30;20410;-74
2022/01/15 01:52:13;;;;;;;44.00;19.63;;;;;;;;;;4737804;30;20048;-74
2022/01/15 01:54:38;;;;;;;41.80;17.47;;;;;;;;;;4750283;30;20040;-74
2022/01/15 01:57:03;;;;;;;40.03;19.10;;;;;;;;;;4749258;30;20041;-74
2022/01/15 01:59:30;;;;;;;39.17;19.43;;;;;;;;;;4745314;30;20120;-74
2022/01/15 02:01:56;;;;;;;41.55;18.42;;;;;;;;;;4734732;30;20139;-74
2022/01/15 02:04:22;;;;;;;45.60;19.27;;;;;;;;;;4740493;30;20131;-73
2022/01/15 02:06:48;;;;;;;48.78;17.52;;;;;;;;;;4741815;30;20080;-74
2022/01/15 02:09:13;;;;;;;37.50;18.43;;;;;;;;;;4745754;30;20064;-73
2022/01/15 02:11:40;;;;;;;42.50;17.70;;;;;;;;;;4740480;30;20103;-73
2022/01/15 02:14:05;;;;;;;39.65;17.88;;;;;;;;;;4740338;30;20059;-74
2022/01/15 02:16:30;;;;;;;43.17;18.63;;;;;;;;;;4739183;30;20410;-74
2022/01/15 02:18:56;;;;;;;36.20;16.63;;;;;;;;;;4744813;30;20097;-74
2022/01/15 02:24:06;;;;;;;40.05;18.45;;;;;;;;;;4743590;30;20148;-74
2022/01/15 02:26:34;;;;;;;44.03;18.90;;;;;;;;;;4740596;30;20130;-77
2022/01/15 02:29:00;;;;;;;40.80;17.73;;;;;;;;;;4739669;30;20431;-77
2022/01/15 02:31:28;;;;;;;34.63;16.42;;;;;;;;;;4733713;30;20135;-77
2022/01/15 02:33:55;;;;;;;38.63;16.60;;;;;;;;;;4738202;30;20051;-76
2022/01/15 02:36:29;;;;;;;34.67;16.73;;;;;;;;;;4742633;30;20040;-76
2022/01/15 02:38:55;;;;;;;37.20;16.48;;;;;;;;;;4735509;30;20056;-74
2022/01/15 02:41:32;;;;;;;42.13;17.15;;;;;;;;;;4748265;30;20036;-74
2022/01/15 02:43:59;;;;;;;34.65;15.52;;;;;;;;;;4734014;30;20102;-74
2022/01/15 02:48:56;;;;;;;40.65;16.63;;;;;;;;;;4734025;30;20471;-73
2022/01/15 02:51:27;;;;;;;43.92;16.60;;;;;;;;;;4744735;30;20048;-74
2022/01/15 02:53:55;;;;;;;33.70;16.45;;;;;;;;;;4735827;30;20119;-74
2022/01/15 02:56:22;;;;;;;40.03;16.77;;;;;;;;;;4745685;30;20123;-74
2022/01/15 02:58:48;;;;;;;32.33;15.07;;;;;;;;;;4744596;30;20511;-73
2022/01/15 03:01:14;;;;;;;42.77;14.90;;;;;;;;;;4745578;30;20052;-73
2022/01/15 03:03:39;;;;;;;31.63;15.47;;;;;;;;;;4752107;30;20103;-74
2022/01/15 03:06:12;;;;;;;38.97;15.23;;;;;;;;;;4751569;30;20406;-73
2022/01/15 03:08:39;;;;;;;31.83;13.65;;;;;;;;;;4733399;30;20037;-74
2022/01/15 03:11:06;;;;;;;30.50;13.63;;;;;;;;;;4745335;30;20385;-74
2022/01/15 03:13:32;;;;;;;33.03;14.75;;;;;;;;;;4737600;30;20509;-73
2022/01/15 03:15:57;;;;;;;36.83;15.10;;;;;;;;;;4738783;30;20048;-74
2022/01/15 03:18:22;;;;;;;36.17;15.33;;;;;;;;;;4741232;30;20115;-74
2022/01/15 03:20:48;;;;;;;34.67;15.90;;;;;;;;;;4744356;30;20048;-74
2022/01/15 03:23:13;;;;;;;35.30;15.57;;;;;;;;;;4741237;30;20102;-73
2022/01/15 03:25:40;;;;;;;39.20;16.77;;;;;;;;;;4747087;30;20471;-74
2022/01/15 03:28:05;;;;;;;51.60;19.20;;;;;;;;;;4743755;30;20044;-74
2022/01/15 03:30:31;;;;;;;37.60;18.33;;;;;;;;;;4741110;30;20044;-74
2022/01/15 03:32:56;;;;;;;40.37;15.80;;;;;;;;;;4737240;30;20053;-74
2022/01/15 03:35:22;;;;;;;40.77;17.53;;;;;;;;;;4738377;30;20099;-74
2022/01/15 03:37:47;;;;;;;38.40;16.43;;;;;;;;;;4733408;30;20060;-74
2022/01/15 03:40:15;;;;;;;36.57;17.03;;;;;;;;;;4744564;30;20110;-74
2022/01/15 03:42:40;;;;;;;42.28;17.70;;;;;;;;;;4737764;30;20064;-74
2022/01/15 03:45:06;;;;;;;40.23;17.00;;;;;;;;;;4718684;30;20079;-74
2022/01/15 03:47:32;;;;;;;42.95;18.55;;;;;;;;;;4733534;30;20128;-74
2022/01/15 03:49:57;;;;;;;39.43;16.83;;;;;;;;;;4743663;30;20127;-74
2022/01/15 03:52:22;;;;;;;37.57;16.70;;;;;;;;;;4746697;30;20103;-74
2022/01/15 03:54:48;;;;;;;43.00;16.90;;;;;;;;;;4754574;30;20048;-74
2022/01/15 03:57:13;;;;;;;36.73;16.67;;;;;;;;;;4753712;30;20055;-74
2022/01/15 03:59:40;;;;;;;38.43;16.23;;;;;;;;;;4751104;30;20032;-74
2022/01/15 04:02:06;;;;;;;40.28;17.42;;;;;;;;;;4736591;30;20413;-74
2022/01/15 04:04:31;;;;;;;35.47;17.60;;;;;;;;;;4738206;30;20044;-74
2022/01/15 04:06:57;;;;;;;42.33;17.97;;;;;;;;;;4739478;30;20383;-74
2022/01/15 04:09:22;;;;;;;41.20;16.00;;;;;;;;;;4746419;30;20044;-74
2022/01/15 04:11:47;;;;;;;38.03;17.50;;;;;;;;;;4739464;30;20436;-74
2022/01/15 04:14:13;;;;;;;41.23;17.37;;;;;;;;;;4738780;30;20048;-76
2022/01/15 04:16:38;;;;;;;40.27;18.60;;;;;;;;;;4748102;30;20059;-76
2022/01/15 04:19:06;;;;;;;43.90;17.97;;;;;;;;;;4752664;30;20076;-76
2022/01/15 04:21:32;;;;;;;35.58;16.98;;;;;;;;;;4750431;30;20044;-76
2022/01/15 04:23:57;;;;;;;41.30;18.47;;;;;;;;;;4743890;30;20052;-76
2022/01/15 04:26:25;;;;;;;46.10;19.83;;;;;;;;;;4745721;30;20041;-74
2022/01/15 04:28:51;;;;;;;43.35;19.40;;;;;;;;;;4744090;30;20028;-74
2022/01/15 04:31:17;;;;;;;39.42;18.67;;;;;;;;;;4748633;30;20512;-74
2022/01/15 04:33:43;;;;;;;44.75;19.65;;;;;;;;;;4745991;30;20036;-74
2022/01/15 04:36:12;;;;;;;41.50;19.70;;;;;;;;;;4747549;30;20048;-74
2022/01/15 04:38:38;;;;;;;49.83;21.55;;;;;;;;;;4752272;30;20087;-74
2022/01/15 04:41:04;;;;;;;45.63;20.75;;;;;;;;;;4752777;30;20531;-74
2022/01/15 04:43:30;;;;;;;53.95;22.35;;;;;;;;;;4753680;30;20044;-74
2022/01/15 04:45:56;;;;;;;49.53;21.47;;;;;;;;;;4751772;30;20503;-74
2022/01/15 04:48:21;;;;;;;49.97;22.53;;;;;;;;;;4748284;30;20409;-74
2022/01/15 04:50:47;;;;;;;50.57;22.43;;;;;;;;;;4751536;30;20757;-74
2022/01/15 04:53:12;;;;;;;49.63;20.27;;;;;;;;;;4749814;30;20109;-74
2022/01/15 04:55:38;;;;;;;45.60;19.77;;;;;;;;;;4742495;30;20045;-74
2022/01/15 04:58:05;;;;;;;47.17;20.38;;;;;;;;;;4737674;30;20482;-75
2022/01/15 05:00:30;;;;;;;;;;;;;;;;;;4747845;30;20051;-74
2022/01/15 05:02:57;;;;;;;41.78;18.17;;;;;;;;;;4734720;30;19922;-74
2022/01/15 05:05:23;;;;;;;42.75;19.17;;;;;;;;;;4750437;30;20545;-74
2022/01/15 05:07:49;;;;;;;52.67;20.10;;;;;;;;;;4745720;30;20396;-74
2022/01/15 05:10:17;;;;;;;48.47;20.70;;;;;;;;;;4742994;30;20055;-74
2022/01/15 05:12:44;;;;;;;42.15;20.05;;;;;;;;;;4742247;30;20056;-74
2022/01/15 05:15:12;;;;;;;51.28;21.60;;;;;;;;;;4743258;30;20048;-74
2022/01/15 05:17:37;;;;;;;52.97;21.40;;;;;;;;;;4736738;30;20068;-74
2022/01/15 05:20:03;;;;;;;51.97;21.30;;;;;;;;;;4749113;30;20517;-74
2022/01/15 05:22:29;;;;;;;44.38;18.73;;;;;;;;;;4746619;30;20069;-74
2022/01/15 05:24:55;;;;;;;60.40;20.47;;;;;;;;;;4745296;30;20387;-74
2022/01/15 05:27:20;;;;;;;48.30;19.40;;;;;;;;;;4737655;30;20371;-74
2022/01/15 05:29:45;;;;;;;44.30;17.87;;;;;;;;;;4751051;30;20048;-73
2022/01/15 05:32:11;;;;;;;42.73;17.50;;;;;;;;;;4748921;30;20101;-76
2022/01/15 05:34:36;;;;;;;43.80;18.43;;;;;;;;;;4747580;30;20130;-77
2022/01/15 05:37:02;;;;;;;40.30;17.20;;;;;;;;;;4745401;30;20129;-77
2022/01/15 05:39:28;;;;;;;38.00;17.10;;;;;;;;;;4740036;30;20110;-76
2022/01/15 05:41:53;;;;;;;39.83;17.93;;;;;;;;;;4739780;30;20048;-76
2022/01/15 05:44:19;;;;;;;39.33;17.53;;;;;;;;;;4745497;30;20051;-74
2022/01/15 05:46:45;;;;;;;36.53;17.23;;;;;;;;;;4750324;30;20051;-74
2022/01/15 05:49:11;;;;;;;35.63;16.60;;;;;;;;;;4747291;30;20425;-74
2022/01/15 05:51:36;;;;;;;35.20;16.90;;;;;;;;;;4747156;30;20478;-74
2022/01/15 05:54:10;;;;;;;30.83;15.03;;;;;;;;;;4739498;30;20142;-74
2022/01/15 05:56:37;;;;;;;36.15;15.23;;;;;;;;;;4739375;30;20064;-74
2022/01/15 05:59:02;;;;;;;;;;;;;;;;;;4735122;30;20465;-74
2022/01/15 06:01:27;;;;;;;33.22;14.93;;;;;;;;;;4734587;30;19966;-76
2022/01/15 06:03:53;;;;;;;32.53;16.33;;;;;;;;;;4746823;30;20048;-76
2022/01/15 06:06:19;;;;;;;34.60;15.03;;;;;;;;;;4752033;30;20048;-76
2022/01/15 06:08:44;;;;;;;29.97;16.03;;;;;;;;;;4747997;30;20294;-77
2022/01/15 06:11:11;;;;;;;35.57;16.27;;;;;;;;;;4752905;30;20385;-76
2022/01/15 06:13:36;;;;;;;34.60;16.92;;;;;;;;;;4740264;30;20051;-76
2022/01/15 06:16:03;;;;;;;33.27;16.17;;;;;;;;;;4748687;30;20044;-76
2022/01/15 06:18:28;;;;;;;33.65;16.38;;;;;;;;;;4749313;30;20036;-76
2022/01/15 06:20:54;;;;;;;35.00;16.13;;;;;;;;;;4752642;30;20043;-74
2022/01/15 06:23:20;;;;;;;43.20;17.00;;;;;;;;;;4748198;30;20040;-74
2022/01/15 06:25:45;;;;;;;34.35;16.55;;;;;;;;;;4743454;30;20097;-73
2022/01/15 06:28:11;;;;;;;37.60;16.97;;;;;;;;;;4744582;30;20057;-73
2022/01/15 06:30:36;;;;;;;36.47;15.87;;;;;;;;;;4750017;30;20123;-73
2022/01/15 06:33:01;;;;;;;36.50;16.50;;;;;;;;;;4747346;30;20095;-74
2022/01/15 06:35:27;;;;;;;40.03;17.03;;;;;;;;;;4747900;30;20501;-73
2022/01/15 06:37:53;;;;;;;37.67;16.63;;;;;;;;;;4741817;30;20075;-73
2022/01/15 06:40:18;;;;;;;36.57;15.97;;;;;;;;;;4743176;30;20046;-73
2022/01/15 06:42:44;;;;;;;33.77;15.93;;;;;;;;;;4734284;30;20048;-74
2022/01/15 06:45:10;;;;;;;35.73;16.10;;;;;;;;;;4733868;30;20040;-73
2022/01/15 06:47:35;;;;;;;31.92;14.75;;;;;;;;;;4747255;30;20115;-74
2022/01/15 06:50:04;;;;;;;40.27;16.03;;;;;;;;;;4748018;30;20095;-74
2022/01/15 06:52:32;;;;;;;35.10;15.18;;;;;;;;;;4734159;30;20037;-76
2022/01/15 06:54:58;;;;;;;37.13;15.35;;;;;;;;;;4733202;30;20557;-76
2022/01/15 06:57:23;;;;;;;29.10;14.97;;;;;;;;;;4740018;30;20080;-75
2022/01/15 06:59:48;;;;;;;33.03;16.77;;;;;;;;;;4741384;30;20051;-76
2022/01/15 07:02:14;;;;;;;33.80;16.57;;;;;;;;;;4746770;30;20052;-76
2022/01/15 07:04:39;;;;;;;31.03;15.87;;;;;;;;;;4735543;30;20123;-73
2022/01/15 07:07:05;;;;;;;35.07;16.83;;;;;;;;;;4736901;30;20040;-74
2022/01/15 07:09:30;;;;;;;33.37;17.20;;;;;;;;;;4746346;30;20043;-74
2022/01/15 07:11:56;;;;;;;37.50;17.67;;;;;;;;;;4735986;30;20051;-75
2022/01/15 07:14:21;;;;;;;37.40;15.90;;;;;;;;;;4739686;30;20500;-75
2022/01/15 07:16:47;;;;;;;33.50;15.93;;;;;;;;;;4741373;30;20117;-75
2022/01/15 07:19:12;;;;;;;36.40;15.87;;;;;;;;;;4741355;30;20059;-75
2022/01/15 07:21:38;;;;;;;39.37;15.47;;;;;;;;;;4745895;30;20048;-75
2022/01/15 07:24:04;;;;;;;31.57;14.97;;;;;;;;;;4744066;30;20063;-75
2022/01/15 07:26:30;;;;;;;41.50;17.25;;;;;;;;;;4749373;30;20066;-75
2022/01/15 07:28:57;;;;;;;36.63;15.50;;;;;;;;;;4744763;30;20044;-75
2022/01/15 07:31:22;;;;;;;31.35;14.73;;;;;;;;;;4747611;30;20135;-77
2022/01/15 07:33:48;;;;;;;40.07;16.63;;;;;;;;;;4748734;30;20460;-77
2022/01/15 07:36:14;;;;;;;34.03;15.43;;;;;;;;;;4748844;30;20486;-77
2022/01/15 07:38:40;;;;;;;33.08;15.00;;;;;;;;;;4727167;30;20119;-75
2022/01/15 07:41:06;;;;;;;39.37;15.13;;;;;;;;;;4746815;30;20131;-77
2022/01/15 07:43:31;;;;;;;39.15;16.85;;;;;;;;;;4741845;30;20036;-75
2022/01/15 07:45:57;;;;;;;32.67;16.77;;;;;;;;;;4742363;30;20043;-75
2022/01/15 07:48:22;;;;;;;45.30;17.07;;;;;;;;;;4741734;30;20048;-75
2022/01/15 07:50:48;;;;;;;36.03;16.67;;;;;;;;;;4737767;30;20033;-75
2022/01/15 07:53:14;;;;;;;39.90;16.70;;;;;;;;;;4749324;30;20032;-75
2022/01/15 07:55:39;;;;;;;32.73;15.33;;;;;;;;;;4745956;30;20071;-75
2022/01/15 07:58:05;;;;;;;30.53;15.90;;;;;;;;;;4741894;30;20063;-75
2022/01/15 08:00:31;;;;;;;28.30;14.45;;;;;;;;;;4740044;30;20501;-75
2022/01/15 08:02:57;;;;;;;36.65;16.30;;;;;;;;;;4745472;30;20056;-74
2022/01/15 08:05:22;;;;;;;34.90;16.63;;;;;;;;;;4745532;30;20469;-75
2022/01/15 08:07:47;;;;;;;38.80;15.87;;;;;;;;;;4744542;30;20043;-74
2022/01/15 08:10:13;;;;;;;40.07;18.10;;;;;;;;;;4734544;30;20057;-75
2022/01/15 08:12:47;;;;;;;39.03;17.67;;;;;;;;;;4735646;30;20111;-77
2022/01/15 08:15:13;;;;;;;31.15;14.98;;;;;;;;;;4745990;30;20170;-78
2022/01/15 08:17:39;;;;;;;;;;;;;;;;;;4736757;30;20052;-75
2022/01/15 08:20:05;;;;;;;37.45;15.98;;;;;;;;;;4741910;30;19926;-75
2022/01/15 08:22:30;;;;;;;35.75;16.08;;;;;;;;;;4739804;30;20470;-75
2022/01/15 08:24:55;;;;;;;38.03;16.20;;;;;;;;;;4743047;30;20048;-75
2022/01/15 08:27:21;;;;;;;39.90;16.00;;;;;;;;;;4745637;30;20071;-75
2022/01/15 08:29:46;;;;;;;40.70;17.23;;;;;;;;;;4741188;30;20387;-76
2022/01/15 08:32:12;;;;;;;36.13;15.87;;;;;;;;;;4741609;30;20041;-75
2022/01/15 08:34:38;;;;;;;38.90;16.40;;;;;;;;;;4748390;30;20032;-75
2022/01/15 08:37:03;;;;;;;41.47;17.30;;;;;;;;;;4723363;30;20116;-75
2022/01/15 08:39:29;;;;;;;35.57;16.53;;;;;;;;;;4742896;30;20132;-75
2022/01/15 08:41:54;;;;;;;43.73;16.37;;;;;;;;;;4744825;30;20047;-75
2022/01/15 08:44:22;;;;;;;37.40;16.73;;;;;;;;;;4745605;30;20544;-76
2022/01/15 08:46:48;;;;;;;37.13;16.42;;;;;;;;;;4738210;30;20064;-75
2022/01/15 08:49:13;;;;;;;34.77;14.27;;;;;;;;;;4739265;30;20068;-77
2022/01/15 08:51:39;;;;;;;34.43;15.40;;;;;;;;;;4740969;30;20033;-77
2022/01/15 08:54:04;;;;;;;42.53;17.70;;;;;;;;;;4742142;30;20074;-77
2022/01/15 08:56:30;;;;;;;45.97;16.90;;;;;;;;;;4743519;30;20040;-77
2022/01/15 08:58:55;;;;;;;39.57;14.27;;;;;;;;;;4745002;30;20059;-77
2022/01/15 09:01:20;;;;;;;53.70;19.00;;;;;;;;;;4745208;30;20101;-76
2022/01/15 09:03:46;;;;;;;34.63;13.93;;;;;;;;;;4750811;30;20032;-76
2022/01/15 09:06:12;;;;;;;33.83;15.07;;;;;;;;;;4741363;30;20152;-77
2022/01/15 09:08:37;;;;;;;30.90;13.73;;;;;;;;;;4735352;30;20402;-76
2022/01/15 09:11:03;;;;;;;37.70;14.77;;;;;;;;;;4744646;30;20075;-76
2022/01/15 09:13:29;;;;;;;54.77;17.87;;;;;;;;;;4752897;30;20051;-77
2022/01/15 09:15:55;;;;;;;29.63;14.57;;;;;;;;;;4749668;30;20073;-77
2022/01/15 09:18:20;;;;;;;41.23;17.53;;;;;;;;;;4735101;30;20045;-76
2022/01/15 09:20:47;;;;;;;50.57;18.93;;;;;;;;;;4746991;30;20058;-76
2022/01/15 09:23:12;;;;;;;54.72;22.17;;;;;;;;;;4735371;30;20114;-76
2022/01/15 09:25:38;;;;;;;50.23;21.07;;;;;;;;;;4748082;30;20121;-77
2022/01/15 09:30:48;;;;;;;66.45;30.85;;;;;;;;;;4743916;30;20524;-73
2022/01/15 09:33:14;;;;;;;76.67;34.33;;;;;;;;;;4738744;30;20037;-73
2022/01/15 09:35:39;;;;;;;119.22;47.00;;;;;;;;;;4747181;30;20047;-73
2022/01/15 09:38:06;;;;;;;77.27;32.77;;;;;;;;;;4752597;30;20052;-73
2022/01/15 09:40:32;;;;;;;72.68;32.83;;;;;;;;;;4748359;30;20433;-73
2022/01/15 09:42:58;;;;;;;56.73;25.93;;;;;;;;;;4738803;30;20056;-73
2022/01/15 09:45:24;;;;;;;53.53;23.27;;;;;;;;;;4746054;30;20036;-73
2022/01/15 09:47:59;;;;;;;48.45;24.85;;;;;;;;;;4744134;30;20513;-73
2022/01/15 09:50:26;;;;;;;48.30;22.90;;;;;;;;;;4748634;30;20127;-73
2022/01/15 09:52:56;;;;;;;53.10;23.35;;;;;;;;;;4743446;30;20079;-73
2022/01/15 09:55:22;;;;;;;42.80;21.42;;;;;;;;;;4749670;30;20052;-73
2022/01/15 09:57:48;;;;;;;50.00;23.48;;;;;;;;;;4750468;30;20048;-73
2022/01/15 10:00:17;;;;;;;58.15;29.63;;;;;;;;;;4735216;30;20060;-73
2022/01/15 10:02:44;;;;;;;78.65;30.63;;;;;;;;;;4736395;30;20056;-73
2022/01/15 10:05:11;;;;;;;61.30;25.40;;;;;;;;;;4751401;30;20442;-73
2022/01/15 10:07:37;;;;;;;61.55;31.70;;;;;;;;;;4738327;30;20078;-73
2022/01/15 10:10:20;;;;;;;57.13;28.70;;;;;;;;;;4734445;30;20053;-73
2022/01/15 10:12:46;;;;;;;51.75;22.58;;;;;;;;;;4750940;30;20393;-73
2022/01/15 10:15:12;;;;;;;41.87;22.57;;;;;;;;;;4750368;30;20055;-73
2022/01/15 10:17:39;;;;;;;63.08;26.38;;;;;;;;;;4731881;30;20031;-73
2022/01/15 10:20:10;;;;;;;45.25;20.67;;;;;;;;;;4734578;30;20048;-73
2022/01/15 10:22:40;;;;;;;41.88;21.45;;;;;;;;;;4737356;30;20047;-73
2022/01/15 10:25:11;;;;;;;67.82;26.60;;;;;;;;;;4747224;30;20131;-73
2022/01/15 10:27:41;;;;;;;38.30;20.58;;;;;;;;;;4725085;30;20052;-73
2022/01/15 10:30:10;;;;;;;43.70;21.05;;;;;;;;;;4744315;30;20113;-73
2022/01/15 10:32:51;;;;;;;34.05;15.93;;;;;;;;;;4741861;30;20049;-73
2022/01/15 10:35:17;;;;;;;30.92;15.30;;;;;;;;;;4746425;30;20070;-73
2022/01/15 10:37:50;;;;;;;35.10;15.67;;;;;;;;;;4738972;30;20402;-73
2022/01/15 10:40:16;;;;;;;31.85;15.68;;;;;;;;;;4736011;30;20459;-73
2022/01/15 10:42:42;;;;;;;59.07;28.97;;;;;;;;;;4734924;30;20040;-73
2022/01/15 10:45:12;;;;;;;50.00;25.63;;;;;;;;;;4745975;30;20048;-73
2022/01/15 10:47:48;;;;;;;73.78;38.03;;;;;;;;;;4755987;30;20063;-74
2022/01/15 10:50:21;;;;;;;62.08;31.52;;;;;;;;;;4734417;30;20483;-74
2022/01/15 10:52:46;;;;;;;57.92;28.73;;;;;;;;;;4742078;30;20055;-73
2022/01/15 10:55:13;;;;;;;60.90;30.70;;;;;;;;;;4737089;30;20048;-73
2022/01/15 10:57:40;;;;;;;61.65;30.33;;;;;;;;;;4739273;30;20059;-73
2022/01/15 11:00:13;;;;;;;60.72;30.17;;;;;;;;;;4737185;30;20132;-76
2022/01/15 11:02:40;;;;;;;60.92;30.10;;;;;;;;;;4738941;30;20144;-76
2022/01/15 11:05:32;;;;;;;67.22;32.75;;;;;;;;;;4743189;30;20041;-76
2022/01/15 11:08:10;;;;;;;72.05;37.80;;;;;;;;;;4736548;30;20105;-76
2022/01/15 11:10:39;;;;;;;67.75;33.60;;;;;;;;;;4733765;30;20040;-73
2022/01/15 11:13:07;;;;;;;56.90;29.05;;;;;;;;;;4741548;30;20040;-74
2022/01/15 11:15:36;;;;;;;65.75;33.28;;;;;;;;;;4737420;30;20040;-73
2022/01/15 11:18:03;;;;;;;52.42;24.08;;;;;;;;;;4746468;30;20552;-73
2022/01/15 11:20:32;;;;;;;60.47;32.83;;;;;;;;;;4741166;30;20119;-73
2022/01/15 11:23:00;;;;;;;79.60;41.15;;;;;;;;;;4742487;30;20038;-74
2022/01/15 11:25:27;;;;;;;68.50;35.83;;;;;;;;;;4736161;30;20110;-73
2022/01/15 11:27:52;;;;;;;78.90;41.92;;;;;;;;;;4733426;30;20041;-73
2022/01/15 11:30:19;;;;;;;60.00;31.07;;;;;;;;;;4733451;30;20395;-73
2022/01/15 11:32:44;;;;;;;55.53;29.42;;;;;;;;;;4733310;30;20546;-74
2022/01/15 11:35:11;;;;;;;49.97;27.23;;;;;;;;;;4736111;30;20190;-73
2022/01/15 11:37:49;;;;;;;43.55;22.27;;;;;;;;;;4733403;30;20502;-73
2022/01/15 11:40:40;;;;;;;47.88;25.00;;;;;;;;;;4734241;30;20050;-73
2022/01/15 11:43:23;;;;;;;51.83;28.52;;;;;;;;;;4725561;30;20418;-73
2022/01/15 11:45:52;;;;;;;57.30;27.98;;;;;;;;;;4737917;30;20079;-73
2022/01/15 11:48:25;;;;;;;58.15;31.08;;;;;;;;;;4742945;30;20044;-73
2022/01/15 11:51:14;;;;;;;58.35;31.75;;;;;;;;;;4745430;30;20402;-73
2022/01/15 11:53:53;;;;;;;56.80;26.35;;;;;;;;;;4731536;30;20536;-73
2022/01/15 11:56:19;;;;;;;53.42;27.65;;;;;;;;;;4729672;30;20045;-73
2022/01/15 11:58:45;;;;;;;47.33;27.90;;;;;;;;;;4746992;30;20086;-73
2022/01/15 12:01:39;;;;;;;67.97;39.53;;;;;;;;;;4739255;30;20441;-76
2022/01/15 12:04:22;;;;;;;46.88;26.17;;;;;;;;;;4738137;30;20044;-76
2022/01/15 12:07:03;;;;;;;69.97;35.63;;;;;;;;;;4734578;30;20041;-76
2022/01/15 12:09:35;;;;;;;71.47;39.00;;;;;;;;;;4739703;30;20123;-76
2022/01/15 12:12:26;;;;;;;61.97;32.67;;;;;;;;;;4740877;30;20040;-76
2022/01/15 12:14:53;;;;;;;50.47;28.48;;;;;;;;;;4735338;30;20402;-76
2022/01/15 12:17:42;;;;;;;45.35;21.88;;;;;;;;;;4746077;30;20083;-76
2022/01/15 12:20:32;;;;;;;34.42;19.73;;;;;;;;;;4739235;30;20095;-74
2022/01/15 12:23:24;;;;;;;34.35;18.65;;;;;;;;;;4731061;30;20047;-74
2022/01/15 12:25:51;;;;;;;29.60;16.92;;;;;;;;;;4735730;30;20040;-74
2022/01/15 12:28:17;;;;;;;30.00;15.32;;;;;;;;;;4745846;30;20119;-74
2022/01/15 12:30:50;;;;;;;26.08;15.63;;;;;;;;;;4742745;30;20083;-76
2022/01/15 12:33:17;;;;;;;26.60;14.43;;;;;;;;;;4749038;30;20048;-76
2022/01/15 12:35:47;;;;;;;36.00;16.27;;;;;;;;;;4742897;30;20052;-76
2022/01/15 12:38:33;;;;;;;28.25;14.60;;;;;;;;;;4747662;30;20039;-77
2022/01/15 12:41:05;;;;;;;24.20;13.50;;;;;;;;;;4735604;30;20057;-77
2022/01/15 12:43:33;;;;;;;23.88;13.40;;;;;;;;;;4741055;30;20051;-74
2022/01/15 12:46:01;;;;;;;34.70;16.85;;;;;;;;;;4743672;30;20044;-74
2022/01/15 12:48:31;;;;;;;27.90;14.60;;;;;;;;;;4741567;30;20048;-74
2022/01/15 12:51:00;;;;;;;30.40;17.17;;;;;;;;;;4738634;30;20032;-75
2022/01/15 12:53:30;;;;;;;33.33;19.15;;;;;;;;;;4728449;30;20045;-74
2022/01/15 12:55:57;;;;;;;34.63;18.00;;;;;;;;;;4742865;30;20441;-74
2022/01/15 12:58:25;;;;;;;23.85;14.30;;;;;;;;;;4740339;30;20106;-74
2022/01/15 13:00:51;;;;;;;26.35;15.18;;;;;;;;;;4735494;30;20396;-77
2022/01/15 13:03:22;;;;;;;31.60;16.65;;;;;;;;;;4742999;30;20475;-77
2022/01/15 13:05:55;;;;;;;30.15;17.40;;;;;;;;;;4742181;30;20064;-77
2022/01/15 13:08:35;;;;;;;43.33;24.73;;;;;;;;;;4739680;30;20413;-76
2022/01/15 13:11:04;;;;;;;32.45;17.73;;;;;;;;;;4740406;30;20406;-76
2022/01/15 13:13:34;;;;;;;40.65;22.50;;;;;;;;;;4735715;30;20118;-74
2022/01/15 13:16:00;;;;;;;42.65;21.27;;;;;;;;;;4735932;30;20072;-74
2022/01/15 13:18:28;;;;;;;42.07;23.43;;;;;;;;;;4749083;30;20067;-74
2022/01/15 13:20:54;;;;;;;35.78;19.40;;;;;;;;;;4745563;30;20056;-74
2022/01/15 13:23:24;;;;;;;38.13;19.57;;;;;;;;;;4735535;30;20049;-74
2022/01/15 13:25:49;;;;;;;43.47;23.42;;;;;;;;;;4735390;30;20128;-74
2022/01/15 13:28:15;;;;;;;44.90;24.33;;;;;;;;;;4742454;30;20127;-74
2022/01/15 13:30:40;;;;;;;37.07;24.40;;;;;;;;;;4735829;30;20095;-74
2022/01/15 13:33:07;;;;;;;45.57;25.80;;;;;;;;;;4751010;30;20040;-74
2022/01/15 13:35:38;;;;;;;48.60;25.42;;;;;;;;;;4741556;30;20048;-74
2022/01/15 13:38:09;;;;;;;46.92;26.67;;;;;;;;;;4744870;30;20490;-74
2022/01/15 13:40:40;;;;;;;49.13;27.20;;;;;;;;;;4737140;30;20505;-74
2022/01/15 13:43:08;;;;;;;47.20;25.30;;;;;;;;;;4735436;30;20055;-74
2022/01/15 13:45:39;;;;;;;48.15;27.85;;;;;;;;;;4734807;30;20044;-76
2022/01/15 13:48:17;;;;;;;53.65;26.58;;;;;;;;;;4740216;30;20056;-76
2022/01/15 13:53:45;;;;;;;43.35;24.38;;;;;;;;;;4718107;30;20142;-77
2022/01/15 13:56:18;;;;;;;47.97;26.70;;;;;;;;;;4735076;30;20046;-76
2022/01/15 13:58:44;;;;;;;44.92;24.75;;;;;;;;;;4731780;30;20044;-76
2022/01/15 14:01:31;;;;;;;45.37;26.73;;;;;;;;;;4740662;30;20794;-76
2022/01/15 14:03:59;;;;;;;46.03;25.20;;;;;;;;;;4726476;30;20043;-77
2022/01/15 14:06:25;;;;;;;50.05;25.73;;;;;;;;;;4734927;30;20126;-76
2022/01/15 14:09:01;;;;;;;60.17;28.40;;;;;;;;;;4736623;30;20040;-76
2022/01/15 14:11:28;;;;;;;54.53;27.40;;;;;;;;;;4745205;30;20406;-77
2022/01/15 14:14:04;;;;;;;61.70;31.75;;;;;;;;;;4737700;30;20045;-76
2022/01/15 14:16:29;;;;;;;48.92;27.75;;;;;;;;;;4739385;30;20048;-77
2022/01/15 14:19:25;;;;;;;52.80;30.10;;;;;;;;;;4743422;30;20040;-76
2022/01/15 14:21:52;;;;;;;53.78;27.98;;;;;;;;;;4749973;30;20056;-76
2022/01/15 14:24:21;;;;;;;52.28;29.42;;;;;;;;;;4741410;30;20487;-76
2022/01/15 14:26:48;;;;;;;52.38;30.13;;;;;;;;;;4749865;30;20052;-77
2022/01/15 14:29:14;;;;;;;59.88;31.25;;;;;;;;;;4750700;30;20113;-76
2022/01/15 14:31:40;;;;;;;;;;;;;;;;;;4746247;30;20052;-77
2022/01/15 14:34:06;;;;;;;58.08;31.27;;;;;;;;;;4739232;30;20296;-77
2022/01/15 14:36:32;;;;;;;57.00;31.03;;;;;;;;;;4737106;30;20148;-76
2022/01/15 14:39:04;;;;;;;62.73;33.67;;;;;;;;;;4742247;30;20123;-76
2022/01/15 14:41:31;;;;;;;57.75;32.25;;;;;;;;;;4748547;30;20051;-76
2022/01/15 14:43:56;;;;;;;67.97;32.33;;;;;;;;;;4742823;30;20098;-77
2022/01/15 14:46:22;;;;;;;64.63;31.37;;;;;;;;;;4740705;30;20044;-76
2022/01/15 14:48:47;;;;;;;58.17;31.23;;;;;;;;;;4749351;30;20044;-76
2022/01/15 14:51:16;;;;;;;61.97;32.97;;;;;;;;;;4746411;30;20068;-77